Time;durP1;ratioP1;P1;durP2;ratioP2;P2;SDS_P1;SDS_P2;PMS_P1;PMS_P2;Temp;Humidity;BMP_temperature;BMP_pressure;BME280_temperature;BME280_humidity;BME280_pressure;Samples;Min_cycle;Max_cycle;Signal;HPM_P1;HPM_P2
2022/11/14 00:00:47;;;;;;;32.22;15.70;;;4.90;99.90;;;;;;5013243;28;20029;-77
2022/11/14 00:03:12;;;;;;;29.15;15.88;;;4.90;99.90;;;;;;5013478;28;20069;-77
2022/11/14 00:05:43;;;;;;;29.65;13.82;;;4.80;99.90;;;;;;5013382;28;20116;-77
2022/11/14 00:08:18;;;;;;;33.25;15.75;;;4.90;99.90;;;;;;5013383;28;20112;-77
2022/11/14 00:10:46;;;;;;;35.53;17.42;;;4.90;99.90;;;;;;5013275;28;20445;-77
2022/11/14 00:13:11;;;;;;;33.72;16.48;;;4.90;99.90;;;;;;5013254;28;20040;-77
2022/11/14 00:15:37;;;;;;;34.00;16.25;;;5.00;99.90;;;;;;5012924;28;20125;-77
2022/11/14 00:18:03;;;;;;;32.38;15.85;;;5.00;99.90;;;;;;5013048;28;20033;-77
2022/11/14 00:20:28;;;;;;;38.08;16.85;;;5.00;99.90;;;;;;5013082;28;20413;-77
2022/11/14 00:22:54;;;;;;;36.10;17.08;;;5.00;99.90;;;;;;5013197;28;20025;-77
2022/11/14 00:25:20;;;;;;;40.08;18.67;;;5.00;99.90;;;;;;5012990;28;20148;-77
2022/11/14 00:27:45;;;;;;;28.45;13.50;;;5.10;99.90;;;;;;5013134;28;20029;-77
2022/11/14 00:30:11;;;;;;;38.85;18.30;;;5.00;99.90;;;;;;5013011;28;20022;-77
2022/11/14 00:32:36;;;;;;;33.50;15.18;;;5.10;99.90;;;;;;5012890;28;20018;-77
2022/11/14 00:35:02;;;;;;;34.63;16.92;;;5.10;99.90;;;;;;5012910;28;20030;-77
2022/11/14 00:37:27;;;;;;;42.08;17.95;;;5.10;99.90;;;;;;5012912;28;20029;-77
2022/11/14 00:39:53;;;;;;;37.38;16.27;;;5.10;99.90;;;;;;5012803;28;20033;-77
2022/11/14 00:42:19;;;;;;;36.45;16.27;;;5.10;99.90;;;;;;5012629;28;20755;-77
2022/11/14 00:44:44;;;;;;;39.10;15.80;;;5.10;99.90;;;;;;5012730;28;20033;-77
2022/11/14 00:47:10;;;;;;;31.58;12.70;;;5.20;99.90;;;;;;5012767;28;20486;-77
2022/11/14 00:49:35;;;;;;;32.65;14.88;;;5.20;99.90;;;;;;5012738;28;20105;-77
2022/11/14 00:52:01;;;;;;;38.28;13.65;;;5.20;99.90;;;;;;5012987;28;20080;-77
2022/11/14 00:54:27;;;;;;;42.58;16.80;;;5.20;99.90;;;;;;5012914;28;20377;-77
2022/11/14 00:56:52;;;;;;;40.67;17.30;;;5.30;99.90;;;;;;5012788;28;20057;-77
2022/11/14 00:59:18;;;;;;;42.45;16.58;;;5.30;99.90;;;;;;5012828;28;20092;-77
2022/11/14 01:01:43;;;;;;;43.80;19.85;;;5.40;99.90;;;;;;5012623;28;20037;-77
2022/11/14 01:04:10;;;;;;;39.17;16.38;;;5.40;99.90;;;;;;5012553;28;20457;-77
2022/11/14 01:06:36;;;;;;;33.35;13.60;;;5.40;99.90;;;;;;5012514;28;20058;-77
2022/11/14 01:09:01;;;;;;;45.72;20.05;;;5.40;99.90;;;;;;5012557;28;20060;-77
2022/11/14 01:11:27;;;;;;;39.03;15.68;;;5.40;99.90;;;;;;5012421;28;20029;-77
2022/11/14 01:13:52;;;;;;;38.42;15.30;;;5.50;99.90;;;;;;5016028;28;20468;-77
2022/11/14 01:16:18;;;;;;;42.60;16.33;;;5.50;99.90;;;;;;4996919;28;20081;-77
2022/11/14 01:18:44;;;;;;;39.25;15.10;;;5.50;99.90;;;;;;4997138;28;20101;-77
2022/11/14 01:21:12;;;;;;;36.53;15.20;;;5.50;99.90;;;;;;4996696;28;20117;-77
2022/11/14 01:23:38;;;;;;;43.28;16.40;;;5.60;99.90;;;;;;4996812;28;20022;-77
2022/11/14 01:26:09;;;;;;;38.75;15.77;;;5.60;99.90;;;;;;4996902;28;20079;-77
2022/11/14 01:28:35;;;;;;;31.83;13.25;;;5.60;99.90;;;;;;4996740;28;20034;-77
2022/11/14 01:31:27;;;;;;;39.72;16.25;;;5.60;99.90;;;;;;4996637;28;20416;-77
2022/11/14 01:33:53;;;;;;;39.65;16.05;;;5.60;99.90;;;;;;4994582;28;20109;-77
2022/11/14 01:36:20;;;;;;;38.63;15.63;;;5.60;99.90;;;;;;4996687;28;20030;-77
2022/11/14 01:38:46;;;;;;;41.47;16.10;;;5.70;99.90;;;;;;4996636;28;20377;-77
2022/11/14 01:41:13;;;;;;;35.65;14.88;;;5.70;99.90;;;;;;4996339;28;20026;-77
2022/11/14 01:43:40;;;;;;;34.72;16.80;;;5.70;99.90;;;;;;4996260;28;20029;-77
2022/11/14 01:46:13;;;;;;;31.45;12.40;;;5.70;99.90;;;;;;4996442;28;20026;-77
2022/11/14 01:49:13;;;;;;;41.47;17.00;;;5.80;99.90;;;;;;4996353;28;20018;-77
2022/11/14 01:51:45;;;;;;;46.65;16.80;;;5.80;99.90;;;;;;4996193;28;20057;-77
2022/11/14 01:54:31;;;;;;;44.65;16.50;;;5.80;99.90;;;;;;4996190;28;20034;-77
2022/11/14 01:56:59;;;;;;;41.85;16.20;;;5.90;99.90;;;;;;4996273;28;20400;-77
2022/11/14 01:59:30;;;;;;;36.38;15.95;;;5.80;99.90;;;;;;4996073;28;20497;-77
2022/11/14 02:02:02;;;;;;;40.47;17.13;;;5.90;99.90;;;;;;4996457;28;20018;-77
2022/11/14 02:04:37;;;;;;;34.63;15.18;;;5.90;99.90;;;;;;5002060;28;20641;-77
2022/11/14 02:07:05;;;;;;;43.15;17.23;;;5.90;99.90;;;;;;4996019;28;20505;-77
2022/11/14 02:09:34;;;;;;;43.22;16.52;;;5.90;99.90;;;;;;4995827;28;20116;-77
2022/11/14 02:12:03;;;;;;;43.38;17.58;;;5.90;99.90;;;;;;4995907;28;20058;-77
2022/11/14 02:14:29;;;;;;;39.55;17.27;;;5.90;99.90;;;;;;4995402;28;20416;-77
2022/11/14 02:16:55;;;;;;;35.83;15.32;;;5.90;99.90;;;;;;4995945;28;20542;-77
2022/11/14 02:19:21;;;;;;;46.97;17.92;;;6.00;99.90;;;;;;4995673;28;20030;-77
2022/11/14 02:21:46;;;;;;;40.72;16.08;;;6.00;99.90;;;;;;4995643;28;20042;-77
2022/11/14 02:24:13;;;;;;;42.60;17.67;;;6.00;99.90;;;;;;4994196;28;20026;-77
2022/11/14 02:26:41;;;;;;;40.15;17.50;;;5.90;99.90;;;;;;4995594;28;20585;-77
2022/11/14 02:29:08;;;;;;;43.00;19.33;;;6.00;99.90;;;;;;4995454;28;20026;-77
2022/11/14 02:31:34;;;;;;;41.33;17.75;;;6.00;99.90;;;;;;4995525;28;20026;-77
2022/11/14 02:33:59;;;;;;;34.92;14.32;;;5.90;99.90;;;;;;4995351;28;20073;-77
2022/11/14 02:36:26;;;;;;;42.25;17.25;;;6.00;99.90;;;;;;4995573;28;20054;-77
2022/11/14 02:38:51;;;;;;;41.38;16.50;;;6.00;99.90;;;;;;4995298;28;20057;-77
2022/11/14 02:41:17;;;;;;;42.95;18.63;;;6.00;99.90;;;;;;5011732;28;20049;-77
2022/11/14 02:43:42;;;;;;;40.10;18.00;;;6.00;99.90;;;;;;5014812;28;20029;-77
2022/11/14 02:46:08;;;;;;;38.90;19.30;;;6.00;99.90;;;;;;5014849;28;20076;-77
2022/11/14 02:48:34;;;;;;;39.97;17.40;;;6.00;99.90;;;;;;5014841;28;20022;-77
2022/11/14 02:50:59;;;;;;;45.58;19.90;;;6.00;99.90;;;;;;5014763;28;20034;-77
2022/11/14 02:53:25;;;;;;;36.63;16.73;;;6.00;99.90;;;;;;5014673;28;20033;-77
2022/11/14 02:55:50;;;;;;;36.33;15.07;;;6.00;99.90;;;;;;5014512;28;20125;-77
2022/11/14 02:58:16;;;;;;;40.33;17.73;;;6.00;99.90;;;;;;5014648;28;20084;-77
2022/11/14 03:00:42;;;;;;;38.65;18.30;;;6.00;99.90;;;;;;5014571;28;20056;-77
2022/11/14 03:03:07;;;;;;;40.45;17.55;;;6.00;99.90;;;;;;5014693;28;20504;-77
2022/11/14 03:05:33;;;;;;;41.78;18.92;;;6.00;99.90;;;;;;5014501;28;20376;-77
2022/11/14 03:07:58;;;;;;;42.03;18.05;;;6.00;99.90;;;;;;5014511;28;20053;-77
2022/11/14 03:10:24;;;;;;;41.50;18.33;;;6.00;99.90;;;;;;5014453;28;20551;-77
2022/11/14 03:12:56;;;;;;;44.15;18.75;;;6.00;99.90;;;;;;5014312;28;20097;-77
2022/11/14 03:15:23;;;;;;;34.45;15.90;;;6.00;99.90;;;;;;5014110;28;20050;-77
2022/11/14 03:17:49;;;;;;;39.30;17.60;;;5.90;99.90;;;;;;5014172;28;20392;-77
2022/11/14 03:20:15;;;;;;;39.25;17.35;;;6.00;99.90;;;;;;5014036;28;20030;-77
2022/11/14 03:22:41;;;;;;;34.65;15.60;;;5.90;99.90;;;;;;5014142;28;20029;-77
2022/11/14 03:25:07;;;;;;;43.38;18.08;;;5.90;99.90;;;;;;5013928;28;20021;-77
2022/11/14 03:27:32;;;;;;;37.90;16.98;;;6.00;99.90;;;;;;5014113;28;20068;-77
2022/11/14 03:29:58;;;;;;;44.35;18.02;;;5.90;99.90;;;;;;5013966;28;20034;-77
2022/11/14 03:32:24;;;;;;;45.80;18.58;;;5.90;99.90;;;;;;5014088;28;20105;-77
2022/11/14 03:34:49;;;;;;;45.53;19.58;;;5.90;99.90;;;;;;5013461;28;20041;-77
2022/11/14 03:37:15;;;;;;;39.70;17.23;;;5.90;99.90;;;;;;5013965;28;20052;-77
2022/11/14 03:39:40;;;;;;;44.17;18.80;;;5.90;99.90;;;;;;5013678;28;20036;-77
2022/11/14 03:42:06;;;;;;;43.92;19.65;;;5.80;99.90;;;;;;5013807;28;20373;-77
2022/11/14 03:44:32;;;;;;;41.15;17.13;;;5.90;99.90;;;;;;5013640;28;20044;-77
2022/11/14 03:46:57;;;;;;;43.53;18.15;;;5.90;99.90;;;;;;5013627;28;20099;-77
2022/11/14 03:49:23;;;;;;;43.50;19.10;;;5.90;99.90;;;;;;5010598;28;20033;-77
2022/11/14 03:51:49;;;;;;;42.70;20.15;;;6.00;99.90;;;;;;4994047;28;20477;-77
2022/11/14 03:54:15;;;;;;;41.38;18.65;;;5.90;99.90;;;;;;4994220;28;20054;-77
2022/11/14 03:56:40;;;;;;;45.85;19.67;;;6.00;99.90;;;;;;4993997;28;20022;-77
2022/11/14 03:59:06;;;;;;;45.45;19.63;;;6.00;99.90;;;;;;4993913;28;20026;-77
2022/11/14 04:01:31;;;;;;;51.03;22.65;;;6.00;99.90;;;;;;4993821;28;20032;-77
2022/11/14 04:03:57;;;;;;;52.28;21.17;;;6.00;99.90;;;;;;4993778;28;20023;-77
2022/11/14 04:06:23;;;;;;;49.97;22.80;;;6.00;99.90;;;;;;4993779;28;20026;-77
2022/11/14 04:08:48;;;;;;;49.35;20.50;;;6.00;99.90;;;;;;4992397;28;20377;-77
2022/11/14 04:11:14;;;;;;;54.67;26.25;;;6.00;99.90;;;;;;4993652;28;20030;-77
2022/11/14 04:13:39;;;;;;;51.30;22.42;;;6.10;99.90;;;;;;4993621;28;20468;-77
2022/11/14 04:16:05;;;;;;;58.70;23.90;;;6.10;99.90;;;;;;5001864;28;20048;-77
2022/11/14 04:18:31;;;;;;;54.88;24.98;;;6.00;99.90;;;;;;5013057;28;20330;-77
2022/11/14 04:20:56;;;;;;;52.13;22.50;;;6.10;99.90;;;;;;5012906;28;20113;-77
2022/11/14 04:23:22;;;;;;;56.28;24.95;;;6.00;99.90;;;;;;5013142;28;20034;-77
2022/11/14 04:25:48;;;;;;;50.22;22.73;;;6.10;99.90;;;;;;4993395;28;20053;-77
2022/11/14 04:28:13;;;;;;;52.28;22.33;;;6.00;99.90;;;;;;4993484;28;20488;-77
2022/11/14 04:30:39;;;;;;;59.03;25.92;;;6.00;99.90;;;;;;4993354;28;20031;-77
2022/11/14 04:33:05;;;;;;;54.75;23.58;;;6.00;99.90;;;;;;4993423;28;20027;-77
2022/11/14 04:35:30;;;;;;;55.75;25.30;;;6.00;99.90;;;;;;4993251;28;20014;-77
2022/11/14 04:37:56;;;;;;;54.17;23.55;;;6.00;99.90;;;;;;4993097;28;20030;-77
2022/11/14 04:40:22;;;;;;;57.17;22.88;;;6.00;99.90;;;;;;5001458;28;20049;-77
2022/11/14 04:42:47;;;;;;;59.47;23.20;;;6.00;99.90;;;;;;5012871;28;20026;-77
2022/11/14 04:45:13;;;;;;;57.53;24.15;;;5.90;99.90;;;;;;5012806;28;20457;-77
2022/11/14 04:47:42;;;;;;;53.90;23.67;;;5.90;99.90;;;;;;5012046;28;20524;-77
2022/11/14 04:50:08;;;;;;;60.13;26.63;;;5.90;99.90;;;;;;5012736;28;20030;-77
2022/11/14 04:52:34;;;;;;;59.30;24.40;;;5.80;99.90;;;;;;5012737;28;20025;-77
2022/11/14 04:54:59;;;;;;;51.92;22.10;;;5.80;99.90;;;;;;5012706;28;20018;-77
2022/11/14 04:57:25;;;;;;;54.85;23.77;;;5.80;99.90;;;;;;5012637;28;20061;-77
2022/11/14 04:59:51;;;;;;;52.80;23.27;;;5.80;99.90;;;;;;5012830;28;20092;-77
2022/11/14 05:02:16;;;;;;;62.88;26.38;;;5.80;99.90;;;;;;5012532;28;20660;-77
2022/11/14 05:04:44;;;;;;;58.47;24.25;;;5.70;99.90;;;;;;5012608;28;20105;-77
2022/11/14 05:07:10;;;;;;;56.75;25.40;;;5.80;99.90;;;;;;5012759;28;20060;-77
2022/11/14 05:09:35;;;;;;;57.80;24.55;;;5.70;99.90;;;;;;5012527;28;20025;-77
2022/11/14 05:12:02;;;;;;;54.97;23.02;;;5.60;99.90;;;;;;5012607;28;20384;-77
2022/11/14 05:14:28;;;;;;;55.65;24.63;;;5.60;99.90;;;;;;5012208;28;20064;-77
2022/11/14 05:16:53;;;;;;;57.60;24.50;;;5.60;99.90;;;;;;5012426;28;20029;-77
2022/11/14 05:19:19;;;;;;;57.35;24.33;;;5.50;99.90;;;;;;5012327;28;20033;-77
2022/11/14 05:21:45;;;;;;;59.33;25.40;;;5.50;99.90;;;;;;5012011;28;20157;-77
2022/11/14 05:24:10;;;;;;;53.90;23.33;;;5.50;99.90;;;;;;5012293;28;20354;-77
2022/11/14 05:26:36;;;;;;;56.33;23.15;;;5.40;99.90;;;;;;5012415;28;20034;-77
2022/11/14 05:29:02;;;;;;;63.13;27.02;;;5.30;99.90;;;;;;5012304;28;20022;-77
2022/11/14 05:31:27;;;;;;;55.17;24.60;;;5.40;99.90;;;;;;5011950;28;20364;-77
2022/11/14 05:33:53;;;;;;;54.25;24.02;;;5.30;99.90;;;;;;5012079;28;20022;-77
2022/11/14 05:36:18;;;;;;;63.92;27.35;;;5.30;99.90;;;;;;5012288;28;20026;-77
2022/11/14 05:38:44;;;;;;;51.47;22.25;;;5.30;99.90;;;;;;5010697;28;20605;-77
2022/11/14 05:41:16;;;;;;;57.60;24.90;;;5.20;99.90;;;;;;5001535;28;20026;-77
2022/11/14 05:43:43;;;;;;;53.53;23.85;;;5.10;99.90;;;;;;5010007;28;20030;-77
2022/11/14 05:46:11;;;;;;;62.78;25.65;;;5.10;99.90;;;;;;4993707;28;20380;-77
2022/11/14 05:48:38;;;;;;;56.03;23.25;;;5.10;99.90;;;;;;4992431;28;20022;-77
2022/11/14 05:51:05;;;;;;;65.00;25.92;;;5.20;99.90;;;;;;4992365;28;20113;-77
2022/11/14 05:53:32;;;;;;;58.42;23.02;;;5.10;99.90;;;;;;4997813;28;20050;-77
2022/11/14 05:56:05;;;;;;;59.75;25.02;;;5.20;99.90;;;;;;4991809;28;20355;-77
2022/11/14 05:58:32;;;;;;;57.92;24.98;;;5.20;99.90;;;;;;4993565;28;20026;-77
2022/11/14 06:01:05;;;;;;;62.03;26.38;;;5.20;99.90;;;;;;4996104;28;20117;-77
2022/11/14 06:03:35;;;;;;;65.25;27.75;;;5.20;99.90;;;;;;4999821;28;20080;-77
2022/11/14 06:06:02;;;;;;;69.18;28.77;;;5.20;99.90;;;;;;5001657;28;20033;-77
2022/11/14 06:08:29;;;;;;;67.65;28.33;;;5.20;99.90;;;;;;5000989;28;20092;-77
2022/11/14 06:10:55;;;;;;;68.60;27.67;;;5.20;99.90;;;;;;4997869;28;20485;-77
2022/11/14 06:13:23;;;;;;;65.28;26.95;;;5.30;99.90;;;;;;5016704;28;20324;-77
2022/11/14 06:15:49;;;;;;;58.22;22.35;;;5.30;99.90;;;;;;4997698;28;20050;-77
2022/11/14 06:18:15;;;;;;;58.80;24.40;;;5.30;99.90;;;;;;5001445;28;20493;-77
2022/11/14 06:20:40;;;;;;;60.53;25.08;;;5.30;99.90;;;;;;5012193;28;20025;-77
2022/11/14 06:23:06;;;;;;;66.35;25.60;;;5.30;99.90;;;;;;4997662;28;20045;-77
2022/11/14 06:25:31;;;;;;;61.92;24.58;;;5.30;99.90;;;;;;5000167;28;20030;-77
2022/11/14 06:27:57;;;;;;;58.33;23.08;;;5.30;99.90;;;;;;5005172;28;20026;-77
2022/11/14 06:30:23;;;;;;;64.15;26.05;;;5.30;99.90;;;;;;5006786;28;20069;-77
2022/11/14 06:32:49;;;;;;;67.00;25.90;;;5.30;99.90;;;;;;5005593;28;20496;-77
2022/11/14 06:35:14;;;;;;;64.95;26.40;;;5.20;99.90;;;;;;5008100;28;20027;-77
2022/11/14 06:37:40;;;;;;;60.08;24.83;;;5.20;99.90;;;;;;5000001;28;20029;-77
2022/11/14 06:40:06;;;;;;;66.05;25.95;;;5.30;99.90;;;;;;5002504;28;20034;-77
2022/11/14 06:42:32;;;;;;;64.20;25.45;;;5.30;99.90;;;;;;5011103;28;20080;-77
2022/11/14 06:44:58;;;;;;;70.63;27.98;;;5.30;99.90;;;;;;5007835;28;20023;-77
2022/11/14 06:47:23;;;;;;;56.38;21.95;;;5.30;99.90;;;;;;4995537;28;20030;-77
2022/11/14 06:49:49;;;;;;;64.57;26.33;;;5.30;99.90;;;;;;4993358;28;20432;-77
2022/11/14 06:52:14;;;;;;;65.45;27.58;;;5.30;99.90;;;;;;5003345;28;20022;-77
2022/11/14 06:54:40;;;;;;;70.85;25.90;;;5.30;99.90;;;;;;5003006;28;20022;-77
2022/11/14 06:57:05;;;;;;;71.15;27.52;;;5.30;99.90;;;;;;5005765;28;20388;-77
2022/11/14 06:59:31;;;;;;;64.70;27.30;;;5.30;99.90;;;;;;5004313;28;20061;-77
2022/11/14 07:01:56;;;;;;;60.10;24.23;;;5.30;99.90;;;;;;5006893;28;20030;-77
2022/11/14 07:04:22;;;;;;;67.15;28.60;;;5.40;99.90;;;;;;5012151;28;20086;-77
2022/11/14 07:06:47;;;;;;;57.17;23.58;;;5.40;99.90;;;;;;5007717;28;20022;-77
2022/11/14 07:09:13;;;;;;;58.42;28.20;;;5.40;99.90;;;;;;4999380;28;20450;-77
2022/11/14 07:11:39;;;;;;;72.05;25.70;;;5.40;99.90;;;;;;4993871;28;20026;-77
2022/11/14 07:14:05;;;;;;;64.97;27.25;;;5.40;99.90;;;;;;4999507;28;20029;-77
2022/11/14 07:16:36;;;;;;;63.45;25.92;;;5.40;99.90;;;;;;4999280;28;20062;-77
2022/11/14 07:19:03;;;;;;;61.78;26.17;;;5.40;99.90;;;;;;5008089;28;20022;-77
2022/11/14 07:21:30;;;;;;;57.85;24.80;;;5.50;99.90;;;;;;5007063;28;20018;-77
2022/11/14 07:23:56;;;;;;;62.90;25.35;;;5.50;99.90;;;;;;4998934;28;20033;-77
2022/11/14 07:26:22;;;;;;;68.13;27.77;;;5.50;99.90;;;;;;4998907;28;20054;-77
2022/11/14 07:28:50;;;;;;;59.38;25.02;;;5.50;99.90;;;;;;5011365;28;20034;-77
2022/11/14 07:31:18;;;;;;;54.65;22.50;;;5.50;99.90;;;;;;5002478;28;20049;-77
2022/11/14 07:33:45;;;;;;;57.78;22.58;;;5.50;99.90;;;;;;4998879;28;20462;-77
2022/11/14 07:36:11;;;;;;;61.85;26.10;;;5.50;99.90;;;;;;4994827;28;20118;-77
2022/11/14 07:38:37;;;;;;;68.75;27.25;;;5.50;99.90;;;;;;5001409;28;20018;-77
2022/11/14 07:41:12;;;;;;;57.28;24.40;;;5.50;99.90;;;;;;5000287;28;20057;-77
2022/11/14 07:43:37;;;;;;;58.13;23.00;;;5.60;99.90;;;;;;5000697;28;20377;-77
2022/11/14 07:46:06;;;;;;;51.95;22.33;;;5.50;99.90;;;;;;5006100;28;20532;-77
2022/11/14 07:48:32;;;;;;;59.60;25.33;;;5.60;99.90;;;;;;5008854;28;20018;-77
2022/11/14 07:51:03;;;;;;;61.17;25.02;;;5.60;99.90;;;;;;5013842;28;20079;-77
2022/11/14 07:53:29;;;;;;;59.80;25.52;;;5.60;99.90;;;;;;5002612;28;20045;-77
2022/11/14 07:55:56;;;;;;;57.25;24.05;;;5.70;99.90;;;;;;5007568;28;20025;-77
2022/11/14 07:58:22;;;;;;;58.47;26.10;;;5.70;99.90;;;;;;5005011;28;20076;-77
2022/11/14 08:00:47;;;;;;;54.58;22.85;;;5.70;99.90;;;;;;5006652;28;20042;-77
2022/11/14 08:03:13;;;;;;;59.65;25.48;;;5.70;99.90;;;;;;4995415;28;20034;-77
2022/11/14 08:05:38;;;;;;;56.15;23.70;;;5.70;99.90;;;;;;5000119;28;20033;-77
2022/11/14 08:08:04;;;;;;;61.70;27.33;;;5.80;99.90;;;;;;5002116;28;20090;-77
2022/11/14 08:10:30;;;;;;;52.85;22.17;;;5.70;99.90;;;;;;5003015;28;20046;-77
2022/11/14 08:13:00;;;;;;;44.65;19.05;;;5.70;99.90;;;;;;5022820;28;20049;-77
2022/11/14 08:15:26;;;;;;;;;;;5.80;99.90;;;;;;5017932;28;20049;-77
2022/11/14 08:17:51;;;;;;;58.50;25.13;;;6.00;99.90;;;;;;5005797;28;19916;-77
2022/11/14 08:20:17;;;;;;;59.55;25.95;;;6.00;99.90;;;;;;4994759;28;20038;-77
2022/11/14 08:22:43;;;;;;;55.03;24.17;;;6.10;99.90;;;;;;4994651;28;20026;-77
2022/11/14 08:25:08;;;;;;;54.08;23.77;;;6.00;99.90;;;;;;4994415;28;20032;-77
2022/11/14 08:27:34;;;;;;;53.25;21.77;;;6.00;99.90;;;;;;5004449;28;20030;-77
2022/11/14 08:29:59;;;;;;;53.40;23.52;;;6.10;99.90;;;;;;5014005;28;20037;-77
2022/11/14 08:32:25;;;;;;;58.72;23.45;;;6.30;99.90;;;;;;5014258;28;20026;-77
2022/11/14 08:34:51;;;;;;;47.72;21.70;;;6.30;96.70;;;;;;5013921;28;20029;-77
2022/11/14 08:37:16;;;;;;;52.80;22.67;;;6.40;97.20;;;;;;5008957;28;20034;-77
2022/11/14 08:39:42;;;;;;;52.70;23.77;;;6.40;91.20;;;;;;4995391;28;20029;-78
2022/11/14 08:42:08;;;;;;;61.25;26.98;;;6.40;78.70;;;;;;4997118;28;20105;-77
2022/11/14 08:44:33;;;;;;;57.03;25.70;;;6.40;78.50;;;;;;4999811;28;20045;-77
2022/11/14 08:46:59;;;;;;;50.42;22.02;;;6.20;88.10;;;;;;4997208;28;20054;-77
2022/11/14 08:49:25;;;;;;;58.33;24.63;;;6.40;83.30;;;;;;4996482;28;20028;-77
2022/11/14 08:51:54;;;;;;;56.17;23.90;;;6.30;87.20;;;;;;4997423;28;20085;-77
2022/11/14 08:54:19;;;;;;;56.25;25.02;;;6.20;91.30;;;;;;5000688;28;20034;-77
2022/11/14 08:56:45;;;;;;;58.85;25.38;;;6.40;79.70;;;;;;4995450;28;20081;-77
2022/11/14 08:59:11;;;;;;;54.35;23.55;;;6.40;86.50;;;;;;4997241;28;20018;-77
2022/11/14 09:01:37;;;;;;;60.53;28.45;;;6.60;65.10;;;;;;5013664;28;20080;-77
2022/11/14 09:04:02;;;;;;;60.22;25.02;;;6.50;53.00;;;;;;5013586;28;20025;-77
2022/11/14 09:06:28;;;;;;;53.20;22.92;;;7.00;42.20;;;;;;5013582;28;20445;-77
2022/11/14 09:08:54;;;;;;;55.40;24.98;;;6.90;33.00;;;;;;5013530;28;20551;-77
2022/11/14 09:11:19;;;;;;;48.95;21.10;;;7.10;24.20;;;;;;5013667;28;20030;-77
2022/11/14 09:13:45;;;;;;;59.33;25.13;;;7.00;25.90;;;;;;5013663;28;20054;-78
2022/11/14 09:16:11;;;;;;;60.55;26.58;;;7.00;28.40;;;;;;5013291;28;20045;-77
2022/11/14 09:18:39;;;;;;;57.85;24.42;;;7.00;23.20;;;;;;5013482;28;20080;-77
2022/11/14 09:21:07;;;;;;;55.70;25.00;;;7.10;24.30;;;;;;5013259;28;20401;-77
2022/11/14 09:23:33;;;;;;;55.83;23.55;;;7.10;19.90;;;;;;5013589;28;20022;-77
2022/11/14 09:26:06;;;;;;;53.33;24.70;;;7.30;11.00;;;;;;5004507;28;20027;-77
2022/11/14 09:28:32;;;;;;;54.35;24.70;;;7.20;7.10;;;;;;5011246;28;20026;-77
2022/11/14 09:31:03;;;;;;;56.95;26.27;;;6.90;14.00;;;;;;5013417;28;20029;-77
2022/11/14 09:33:29;;;;;;;54.10;22.30;;;6.90;22.70;;;;;;5014639;28;20025;-77
2022/11/14 09:36:06;;;;;;;60.97;25.42;;;7.10;23.70;;;;;;5017474;28;20049;-77
2022/11/14 09:38:33;;;;;;;52.25;24.35;;;7.10;19.90;;;;;;5017372;28;20026;-77
2022/11/14 09:41:07;;;;;;;47.60;20.27;;;7.30;10.10;;;;;;5009463;28;20018;-77
2022/11/14 09:43:52;;;;;;;54.08;24.30;;;7.40;5.60;;;;;;5007263;28;20052;-77
2022/11/14 09:46:22;;;;;;;57.28;27.08;;;7.10;9.00;;;;;;5010830;28;20534;-77
2022/11/14 09:48:48;;;;;;;48.33;21.77;;;7.20;12.30;;;;;;5005617;28;20029;-77
2022/11/14 09:51:33;;;;;;;53.35;22.35;;;7.30;5.80;;;;;;5005872;28;20061;-80
2022/11/14 09:54:32;;;;;;;52.10;23.52;;;7.40;7.40;;;;;;5003093;28;20038;-80
2022/11/14 09:56:59;;;;;;;55.22;23.20;;;7.30;2.60;;;;;;4998290;28;20034;-80
2022/11/14 09:59:25;;;;;;;52.50;25.35;;;7.40;1.00;;;;;;4997931;28;20369;-80
2022/11/14 10:02:04;;;;;;;52.38;24.10;;;7.30;1.00;;;;;;4997472;28;20461;-80
2022/11/14 10:04:50;;;;;;;53.85;26.02;;;7.50;1.00;;;;;;4996150;28;20374;-79
2022/11/14 10:07:52;;;;;;;53.80;25.05;;;7.50;1.00;;;;;;4999695;28;20560;-79
2022/11/14 10:10:26;;;;;;;52.53;23.60;;;7.50;1.00;;;;;;5006298;28;20066;-80
2022/11/14 10:13:23;;;;;;;52.40;23.65;;;7.40;1.00;;;;;;5002131;28;20022;-80
2022/11/14 10:16:10;;;;;;;43.35;20.67;;;7.50;1.00;;;;;;5015302;28;20161;-80
2022/11/14 10:19:00;;;;;;;48.20;23.45;;;7.30;1.00;;;;;;5004491;28;20404;-78
2022/11/14 10:21:43;;;;;;;51.03;23.25;;;7.30;1.00;;;;;;4998345;28;20034;-78
2022/11/14 10:24:28;;;;;;;49.13;21.35;;;7.30;1.00;;;;;;5005994;28;20034;-78
2022/11/14 10:27:06;;;;;;;49.40;20.83;;;7.40;1.00;;;;;;5004313;28;20022;-78
2022/11/14 10:30:07;;;;;;;48.15;22.40;;;7.30;1.00;;;;;;4996532;28;20023;-78
2022/11/14 10:32:35;;;;;;;53.92;23.80;;;7.30;1.00;;;;;;5006727;28;20072;-78
2022/11/14 10:35:09;;;;;;;47.00;21.40;;;7.30;1.00;;;;;;5004851;28;20479;-78
2022/11/14 10:37:50;;;;;;;49.92;24.48;;;7.30;1.00;;;;;;5003419;28;20022;-78
2022/11/14 10:40:43;;;;;;;50.65;25.42;;;7.50;1.00;;;;;;5003624;28;20040;-77
2022/11/14 10:43:11;;;;;;;55.53;26.83;;;7.50;1.00;;;;;;5010678;28;20030;-78
2022/11/14 10:45:46;;;;;;;50.97;24.98;;;7.60;1.00;;;;;;4993798;28;20045;-78
2022/11/14 10:48:25;;;;;;;45.30;20.58;;;7.70;1.00;;;;;;5008969;28;20034;-78
2022/11/14 10:50:53;;;;;;;50.72;23.98;;;7.70;1.00;;;;;;5000825;28;20109;-78
2022/11/14 10:53:37;;;;;;;50.10;23.25;;;7.60;1.00;;;;;;5012921;28;20433;-78
2022/11/14 10:56:03;;;;;;;49.25;21.08;;;7.70;1.00;;;;;;5003795;28;20125;-78
2022/11/14 10:58:28;;;;;;;49.67;22.90;;;7.80;1.00;;;;;;4998156;28;20475;-78
2022/11/14 11:00:54;;;;;;;45.40;23.55;;;7.80;1.00;;;;;;5003898;28;20024;-78
2022/11/14 11:03:38;;;;;;;48.58;23.77;;;7.90;1.00;;;;;;4998393;28;20037;-78
2022/11/14 11:06:04;;;;;;;51.75;23.88;;;7.80;1.00;;;;;;5006986;28;20042;-78
2022/11/14 11:11:30;;;;;;;51.70;22.65;;;7.90;1.00;;;;;;4998180;28;20496;-78
2022/11/14 11:13:59;;;;;;;46.50;20.60;;;8.00;1.00;;;;;;4998685;28;20018;-78
2022/11/14 11:16:27;;;;;;;51.97;22.60;;;8.00;1.00;;;;;;4997042;28;20050;-78
2022/11/14 11:18:53;;;;;;;43.60;21.25;;;7.90;1.00;;;;;;4996301;28;20080;-78
2022/11/14 11:21:20;;;;;;;43.33;20.63;;;8.00;1.00;;;;;;5000061;28;20109;-78
2022/11/14 11:23:50;;;;;;;42.03;19.98;;;8.00;1.00;;;;;;4998454;28;20484;-78
2022/11/14 11:26:19;;;;;;;44.13;23.08;;;8.00;1.00;;;;;;5008397;28;20033;-78
2022/11/14 11:29:01;;;;;;;46.58;20.80;;;8.00;1.00;;;;;;5005356;28;20084;-78
2022/11/14 11:31:26;;;;;;;44.42;22.58;;;8.10;1.00;;;;;;5001436;28;20077;-78
2022/11/14 11:33:53;;;;;;;43.35;21.20;;;8.30;1.00;;;;;;5002825;28;20023;-78
2022/11/14 11:36:21;;;;;;;46.30;22.95;;;8.20;1.00;;;;;;5002066;28;20041;-78
2022/11/14 11:38:48;;;;;;;45.78;22.35;;;8.30;1.00;;;;;;5010493;28;20030;-78
2022/11/14 11:41:28;;;;;;;47.33;21.40;;;8.40;1.00;;;;;;4996182;28;20551;-78
2022/11/14 11:44:00;;;;;;;47.28;22.00;;;8.40;1.00;;;;;;5003001;28;20080;-78
2022/11/14 11:46:52;;;;;;;50.45;24.20;;;8.50;1.00;;;;;;5010296;28;20058;-78
2022/11/14 11:49:36;;;;;;;41.45;20.17;;;8.60;1.00;;;;;;5007855;28;20404;-78
2022/11/14 11:52:31;;;;;;;44.22;21.75;;;8.60;1.00;;;;;;5010219;28;20101;-78
2022/11/14 11:55:12;;;;;;;47.42;23.75;;;8.60;1.00;;;;;;5012285;28;20039;-78
2022/11/14 11:57:43;;;;;;;39.92;19.08;;;8.60;1.00;;;;;;5013661;28;20061;-78
2022/11/14 12:00:17;;;;;;;44.85;20.77;;;8.70;1.00;;;;;;5009131;28;20038;-78
2022/11/14 12:02:49;;;;;;;43.33;20.27;;;8.70;1.00;;;;;;5006266;28;20477;-78
2022/11/14 12:05:33;;;;;;;34.67;17.83;;;8.70;1.00;;;;;;5000374;28;20531;-78
2022/11/14 12:08:10;;;;;;;39.75;20.88;;;8.80;1.00;;;;;;5009855;28;20389;-78
2022/11/14 12:10:39;;;;;;;39.35;20.08;;;8.90;1.00;;;;;;5012293;28;20105;-78
2022/11/14 12:13:30;;;;;;;38.97;19.63;;;9.00;1.00;;;;;;5008891;28;20378;-78
2022/11/14 12:15:58;;;;;;;41.30;20.33;;;8.90;1.00;;;;;;5001321;28;20397;-78
2022/11/14 12:18:30;;;;;;;47.38;21.65;;;9.00;1.00;;;;;;5007185;28;20053;-78
2022/11/14 12:21:06;;;;;;;37.55;18.67;;;9.00;1.00;;;;;;5004747;28;20334;-78
2022/11/14 12:24:13;;;;;;;38.65;18.58;;;9.10;1.00;;;;;;5014313;28;20545;-78
2022/11/14 12:26:59;;;;;;;41.42;19.13;;;9.10;1.00;;;;;;4992747;28;20129;-78
2022/11/14 12:29:34;;;;;;;39.25;18.90;;;9.20;1.00;;;;;;5002502;28;20034;-78
2022/11/14 12:32:11;;;;;;;42.95;20.55;;;9.20;1.00;;;;;;5006351;28;20088;-78
2022/11/14 12:34:41;;;;;;;42.63;20.45;;;9.20;1.00;;;;;;4998248;28;20014;-78
2022/11/14 12:37:17;;;;;;;38.53;20.33;;;9.20;1.00;;;;;;5010750;28;20022;-78
2022/11/14 12:39:56;;;;;;;38.22;19.13;;;9.30;1.00;;;;;;5002096;28;20053;-78
2022/11/14 12:42:21;;;;;;;49.97;23.95;;;9.20;1.00;;;;;;5003304;28;20500;-78
2022/11/14 12:44:47;;;;;;;39.08;18.92;;;9.30;1.00;;;;;;5000366;28;20018;-78
2022/11/14 12:47:18;;;;;;;38.90;18.98;;;9.40;1.00;;;;;;5003202;28;20022;-78
2022/11/14 12:49:47;;;;;;;40.83;20.20;;;9.30;1.00;;;;;;5004122;28;20025;-78
2022/11/14 12:52:53;;;;;;;38.63;18.00;;;9.40;1.00;;;;;;5006303;28;20388;-78